Latest Weather Observations for ACT PCS2

IDN60901

Issued at 8:21 am EDT Wednesday 23 October 2019 (issued every 10 minutes, with the page automatically refreshed every 10 minutes)

About weather observations | Map of Canberra area stations | Latest observations for Canberra area | Other Formats
Station Details ID: 250105 Name: ACT PCS2 Lat: -35.33 Lon: 149.05 Height: 552.0 m
Data from the previous 72 hours. | See also: Recent months for locations in Aust Capital Territory
Date/Time
EDT
Temp
°C
App
Temp
°C
Dew
Point
°C
Rel
Hum
%
Delta-T
°C
Wind Press
QNH
hPa
Press
MSL
hPa
Rain since
9am
mm
Dir  Spd
km/h
Gust
km/h
Spd
kts
Gust
kts
23/08:10am 14.7 - 9.8 72 2.6 - - - - - - - 0.0
23/08:00am 13.9 - 9.5 75 2.3 - - - - - - - 0.0
23/07:50am 13.4 - 9.3 76 2.1 - - - - - - - 0.0
23/07:40am 13.0 - 9.2 78 2.0 - - - - - - - 0.0
23/07:30am 12.6 - 9.0 79 1.9 - - - - - - - 0.0
23/07:20am 11.8 - 8.5 80 1.7 - - - - - - - 0.0
23/07:10am 10.9 - 8.3 84 1.3 - - - - - - - 0.0
23/07:00am 9.6 - 7.8 88 0.9 - - - - - - - 0.0
23/06:50am 8.4 - 6.8 90 0.8 - - - - - - - 0.0
23/06:40am 7.8 - 6.3 90 0.7 - - - - - - - 0.0
23/06:30am 7.7 - 6.2 90 0.7 - - - - - - - 0.0
23/06:20am 7.6 - 6.2 91 0.7 - - - - - - - 0.0
23/06:10am 7.6 - 6.1 90 0.7 - - - - - - - 0.0
23/06:00am 7.6 - 6.1 90 0.7 - - - - - - - 0.0
23/05:50am 7.7 - 6.1 90 0.8 - - - - - - - 0.0
23/05:40am 7.8 - 6.3 90 0.7 - - - - - - - 0.0
23/05:30am 7.9 - 6.4 90 0.7 - - - - - - - 0.0
23/05:20am 8.0 - 6.5 90 0.7 - - - - - - - 0.0
23/05:10am 8.1 - 6.7 91 0.7 - - - - - - - 0.0
23/05:00am 8.1 - 6.6 90 0.7 - - - - - - - 0.0
23/04:50am 8.1 - 6.6 90 0.7 - - - - - - - 0.0
23/04:40am 8.3 - 6.6 89 0.8 - - - - - - - 0.0
23/04:30am 8.7 - 7.0 89 0.8 - - - - - - - 0.0
23/04:20am 9.0 - 7.5 90 0.7 - - - - - - - 0.0
23/04:10am 8.8 - 7.2 90 0.8 - - - - - - - 0.0
23/04:00am 8.7 - 7.0 89 0.8 - - - - - - - 0.0
23/03:50am 9.1 - 7.5 90 0.8 - - - - - - - 0.0
23/03:40am 9.1 - 7.4 89 0.8 - - - - - - - 0.0
23/03:30am 9.3 - 7.5 88 0.9 - - - - - - - 0.0
23/03:20am 9.3 - 7.6 89 0.8 - - - - - - - 0.0
23/03:10am 9.5 - 7.6 88 0.9 - - - - - - - 0.0
23/03:00am 9.6 - 7.8 88 0.9 - - - - - - - 0.0
23/02:50am 9.8 - 7.8 87 1.0 - - - - - - - 0.0
23/02:40am 10.1 - 8.1 87 1.0 - - - - - - - 0.0
23/02:30am 10.3 - 8.3 87 1.0 - - - - - - - 0.0
23/02:20am 10.4 - 8.3 87 1.1 - - - - - - - 0.0
23/02:10am 10.7 - 8.4 86 1.2 - - - - - - - 0.0
23/02:00am 10.8 - 8.6 86 1.1 - - - - - - - 0.0
23/01:50am 11.0 - 8.6 85 1.2 - - - - - - - 0.0
23/01:40am 11.4 - 8.9 84 1.3 - - - - - - - 0.0
23/01:30am 11.7 - 8.9 83 1.4 - - - - - - - 0.0
23/01:20am 11.9 - 9.3 84 1.3 - - - - - - - 0.0
23/01:10am 12.0 - 9.2 83 1.5 - - - - - - - 0.0
23/01:00am 12.2 - 9.2 82 1.6 - - - - - - - 0.0
23/12:50am 12.4 - 9.3 81 1.6 - - - - - - - 0.0
23/12:40am 12.6 - 9.4 81 1.7 - - - - - - - 0.0
23/12:30am 13.1 - 9.7 80 1.8 - - - - - - - 0.0
23/12:20am 13.9 - 9.9 77 2.1 - - - - - - - 0.0
23/12:10am 14.2 - 10.2 77 2.1 - - - - - - - 0.0
23/12:00am 14.3 - 10.5 78 2.0 - - - - - - - 0.0
 
Date/Time
EDT
Temp
°C
App
Temp
°C
Dew
Point
°C
Rel
Hum
%
Delta-T
°C
Wind Press
QNH
hPa
Press
MSL
hPa
Rain since
9am
mm
Dir  Spd
km/h
Gust
km/h
Spd
kts
Gust
kts
22/11:50pm 14.3 - 10.3 77 2.1 - - - - - - - 0.0
22/11:40pm 14.4 - 10.4 77 2.2 - - - - - - - 0.0
22/11:30pm 14.6 - 10.2 75 2.4 - - - - - - - 0.0
22/11:20pm 14.6 - 10.1 74 2.4 - - - - - - - 0.0
22/11:10pm 14.7 - 10.0 73 2.5 - - - - - - - 0.0
22/11:00pm 14.8 - 9.9 72 2.6 - - - - - - - 0.0
22/10:50pm 15.0 - 10.1 72 2.6 - - - - - - - 0.0
22/10:40pm 15.2 - 10.2 72 2.7 - - - - - - - 0.0
22/10:30pm 15.4 - 10.5 72 2.7 - - - - - - - 0.0
22/10:20pm 15.4 - 10.4 72 2.7 - - - - - - - 0.0
22/10:10pm 15.6 - 10.1 70 3.0 - - - - - - - 0.0
22/10:00pm 15.9 - 9.9 67 3.2 - - - - - - - 0.0
22/09:50pm 16.1 - 9.8 66 3.4 - - - - - - - 0.0
22/09:40pm 16.4 - 9.8 65 3.6 - - - - - - - 0.0
22/09:30pm 16.6 - 9.6 63 3.8 - - - - - - - 0.0
22/09:20pm 16.9 - 9.7 62 3.9 - - - - - - - 0.0
22/09:10pm 17.2 - 9.3 59 4.2 - - - - - - - 0.0
22/09:00pm 17.5 - 9.1 58 4.5 - - - - - - - 0.0
22/08:50pm 17.8 - 9.2 57 4.6 - - - - - - - 0.0
22/08:40pm 18.0 - 9.3 56 4.7 - - - - - - - 0.0
22/08:30pm 18.4 - 9.4 55 4.9 - - - - - - - 0.0
22/08:20pm 18.8 - 9.8 56 4.9 - - - - - - - 0.0
22/08:10pm 19.3 - 9.8 54 5.2 - - - - - - - 0.0
22/08:00pm 19.7 - 9.7 52 5.5 - - - - - - - 0.0
22/07:50pm 20.2 - 9.8 51 5.7 - - - - - - - 0.0
22/07:40pm 20.8 - 9.9 49 6.0 - - - - - - - 0.0
22/07:30pm 21.9 - 9.9 46 6.7 - - - - - - - 0.0
22/07:20pm 24.0 - 8.7 37 8.4 - - - - - - - 0.0
22/07:10pm 24.8 - 3.8 25 10.6 - - - - - - - 0.0
22/07:00pm 25.3 - 3.5 24 11.0 - - - - - - - 0.0
22/06:50pm 25.7 - 3.6 24 11.2 - - - - - - - 0.0
22/06:40pm 26.1 - 4.2 24 11.3 - - - - - - - 0.0
22/06:30pm 26.4 - 4.1 23 11.5 - - - - - - - 0.0
22/06:20pm 26.7 - 3.3 22 11.9 - - - - - - - 0.0
22/06:10pm 27.0 - 4.7 24 11.6 - - - - - - - 0.0
22/06:00pm 27.2 - 4.0 22 12.0 - - - - - - - 0.0
22/05:50pm 27.5 - 4.8 23 11.9 - - - - - - - 0.0
22/05:40pm 27.5 - 4.3 22 12.1 - - - - - - - 0.0
22/05:30pm 27.5 - 5.4 24 11.7 - - - - - - - 0.0
22/05:20pm 27.9 - 5.1 23 12.0 - - - - - - - 0.0
22/05:10pm 28.2 - 5.2 23 12.2 - - - - - - - 0.0
22/05:00pm 28.3 - 6.2 24 11.9 - - - - - - - 0.0
22/04:50pm 28.0 - 5.5 24 12.0 - - - - - - - 0.0
22/04:40pm 28.3 - 6.2 24 11.9 - - - - - - - 0.0
22/04:30pm 28.3 - 5.1 23 12.3 - - - - - - - 0.0
22/04:20pm 28.2 - 5.6 23 12.1 - - - - - - - 0.0
22/04:10pm 28.5 - 4.7 22 12.5 - - - - - - - 0.0
22/04:00pm 28.2 - 4.6 22 12.4 - - - - - - - 0.0
22/03:50pm 28.3 - 4.5 22 12.5 - - - - - - - 0.0
22/03:40pm 28.6 - 4.7 22 12.6 - - - - - - - 0.0
22/03:30pm 28.9 - 2.2 18 13.5 - - - - - - - 0.0
22/03:20pm 28.6 - 2.0 18 13.4 - - - - - - - 0.0
22/03:10pm 28.7 - 2.3 18 13.4 - - - - - - - 0.0
22/03:00pm 28.5 - 0.5 16 13.7 - - - - - - - 0.0
22/02:50pm 28.7 - 2.1 18 13.4 - - - - - - - 0.0
22/02:40pm 28.5 - 0.7 16 13.7 - - - - - - - 0.0
22/02:30pm 28.5 - -0.2 15 13.9 - - - - - - - 0.0
22/02:20pm 28.3 - 0.1 16 13.7 - - - - - - - 0.0
22/02:10pm 28.3 - 0.6 16 13.6 - - - - - - - 0.0
22/02:00pm 28.3 - 1.1 17 13.4 - - - - - - - 0.0
22/01:50pm 28.3 - 1.3 17 13.4 - - - - - - - 0.0
22/01:40pm 27.9 - 1.6 18 13.1 - - - - - - - 0.0
22/01:30pm 27.8 - 0.1 16 13.4 - - - - - - - 0.0
22/01:20pm 27.3 - 2.0 19 12.6 - - - - - - - 0.0
22/01:10pm 27.3 - 1.0 18 12.9 - - - - - - - 0.0
22/01:00pm 26.5 - 5.9 26 10.9 - - - - - - - 0.0
22/12:50pm 26.8 - 5.3 25 11.3 - - - - - - - 0.0
22/12:40pm 26.3 - 6.7 28 10.5 - - - - - - - 0.0
22/12:30pm 25.8 - 5.4 27 10.7 - - - - - - - 0.0
22/12:20pm 25.8 - 6.7 29 10.2 - - - - - - - 0.0
22/12:10pm 25.6 - 6.8 30 10.1 - - - - - - - 0.0
22/12:00pm 25.4 - 7.3 31 9.8 - - - - - - - 0.0
22/11:50am 24.9 - 6.9 31 9.6 - - - - - - - 0.0
22/11:40am 24.5 - 7.0 32 9.4 - - - - - - - 0.0
22/11:30am 24.0 - 7.9 35 8.7 - - - - - - - 0.0
22/11:20am 23.7 - 8.1 37 8.5 - - - - - - - 0.0
22/11:10am 23.2 - 8.8 39 7.9 - - - - - - - 0.0
22/11:00am 23.0 - 8.5 39 7.9 - - - - - - - 0.0
22/10:50am 22.2 - 8.2 40 7.6 - - - - - - - 0.0
22/10:40am 21.5 - 8.9 44 6.9 - - - - - - - 0.0
22/10:30am 21.2 - 8.8 45 6.7 - - - - - - - 0.0
22/10:20am 20.8 - 8.9 46 6.5 - - - - - - - 0.0
22/10:10am 20.6 - 9.4 48 6.1 - - - - - - - 0.0
22/10:00am 20.4 - 8.9 47 6.2 - - - - - - - 0.0
22/09:50am 19.9 - 8.9 49 5.9 - - - - - - - 0.0
22/09:40am 19.2 - 8.6 50 5.7 - - - - - - - 0.0
22/09:30am 19.0 - 8.7 51 5.5 - - - - - - - 0.0
22/09:20am 17.9 - 8.7 55 4.9 - - - - - - - 0.0
22/09:10am 17.1 - 8.2 56 4.7 - - - - - - - 0.0
22/09:00am 16.5 - 8.4 58 4.2 - - - - - - - 0.0
22/08:50am 15.7 - 8.2 61 3.9 - - - - - - - 0.0
22/08:40am 15.3 - 8.2 62 3.7 - - - - - - - 0.0
22/08:30am 14.6 - 8.0 64 3.4 - - - - - - - 0.0
22/08:20am 14.3 - 7.7 64 3.4 - - - - - - - 0.0
22/08:10am 14.0 - 7.7 66 3.2 - - - - - - - 0.0
22/08:00am 13.7 - 7.6 66 3.1 - - - - - - - 0.0
22/07:50am 13.0 - 7.7 70 2.7 - - - - - - - 0.0
22/07:40am 12.3 - 7.8 74 2.3 - - - - - - - 0.0
22/07:30am 11.7 - 7.4 75 2.1 - - - - - - - 0.0
22/07:20am 10.8 - 7.2 78 1.8 - - - - - - - 0.0
22/07:10am 9.7 - 6.9 83 1.4 - - - - - - - 0.0
22/07:00am 8.6 - 6.3 85 1.1 - - - - - - - 0.0
22/06:50am 7.5 - 5.5 87 0.9 - - - - - - - 0.0
22/06:40am 6.9 - 5.2 89 0.8 - - - - - - - 0.0
22/06:30am 6.7 - 5.0 89 0.8 - - - - - - - 0.0
22/06:20am 6.8 - 5.0 88 0.8 - - - - - - - 0.0
22/06:10am 6.7 - 4.9 88 0.8 - - - - - - - 0.0
22/06:00am 6.7 - 5.0 89 0.8 - - - - - - - 0.0
22/05:50am 6.9 - 5.2 89 0.8 - - - - - - - 0.0
22/05:40am 6.9 - 5.2 89 0.8 - - - - - - - 0.0
22/05:30am 6.8 - 5.0 88 0.8 - - - - - - - 0.0
22/05:20am 7.0 - 5.1 88 0.9 - - - - - - - 0.0
22/05:10am 7.1 - 5.3 88 0.8 - - - - - - - 0.0
22/05:00am 7.3 - 5.4 88 0.9 - - - - - - - 0.0
22/04:50am 7.4 - 5.5 88 0.9 - - - - - - - 0.0
22/04:40am 7.6 - 5.5 86 1.0 - - - - - - - 0.0
22/04:30am 7.8 - 5.5 85 1.1 - - - - - - - 0.0
22/04:20am 8.0 - 5.9 86 1.0 - - - - - - - 0.0
22/04:10am 7.8 - 5.5 85 1.1 - - - - - - - 0.0
22/04:00am 7.8 - 5.5 85 1.1 - - - - - - - 0.0
22/03:50am 7.9 - 5.6 85 1.1 - - - - - - - 0.0
22/03:40am 8.1 - 5.7 85 1.1 - - - - - - - 0.0
22/03:30am 8.2 - 5.7 84 1.2 - - - - - - - 0.0
22/03:20am 8.5 - 6.0 84 1.2 - - - - - - - 0.0
22/03:10am 8.5 - 5.9 84 1.2 - - - - - - - 0.0
22/03:00am 8.6 - 6.1 84 1.2 - - - - - - - 0.0
22/02:50am 8.7 - 6.2 84 1.2 - - - - - - - 0.0
22/02:40am 8.7 - 6.1 84 1.2 - - - - - - - 0.0
22/02:30am 9.0 - 6.3 83 1.3 - - - - - - - 0.0
22/02:20am 9.2 - 6.5 83 1.3 - - - - - - - 0.0
22/02:10am 9.3 - 6.5 83 1.3 - - - - - - - 0.0
22/02:00am 9.4 - 6.6 83 1.3 - - - - - - - 0.0
22/01:50am 9.7 - 6.7 81 1.4 - - - - - - - 0.0
22/01:40am 10.1 - 6.8 80 1.6 - - - - - - - 0.0
22/01:30am 10.4 - 7.0 79 1.7 - - - - - - - 0.0
22/01:20am 10.5 - 7.1 79 1.7 - - - - - - - 0.0
22/01:10am 10.6 - 7.1 79 1.7 - - - - - - - 0.0
22/01:00am 10.9 - 7.3 78 1.8 - - - - - - - 0.0
22/12:50am 11.2 - 7.4 77 1.9 - - - - - - - 0.0
22/12:40am 11.4 - 7.4 76 2.0 - - - - - - - 0.0
22/12:30am 11.5 - 7.5 76 2.0 - - - - - - - 0.0
22/12:20am 11.6 - 7.5 76 2.0 - - - - - - - 0.0
22/12:00am 12.5 - 7.7 72 2.4 - - - - - - - 0.0
 
Date/Time
EDT
Temp
°C
App
Temp
°C
Dew
Point
°C
Rel
Hum
%
Delta-T
°C
Wind Press
QNH
hPa
Press
MSL
hPa
Rain since
9am
mm
Dir  Spd
km/h
Gust
km/h
Spd
kts
Gust
kts
21/11:50pm 12.8 - 7.9 72 2.5 - - - - - - - 0.0
21/11:40pm 13.1 - 8.0 71 2.6 - - - - - - - 0.0
21/11:30pm 13.2 - 8.0 71 2.6 - - - - - - - 0.0
21/11:20pm 13.3 - 8.3 72 2.6 - - - - - - - 0.0
21/11:10pm 14.0 - 8.4 69 2.9 - - - - - - - 0.0
21/11:00pm 14.5 - 8.2 66 3.2 - - - - - - - 0.0
21/10:50pm 14.4 - 8.2 66 3.2 - - - - - - - 0.0
21/10:40pm 14.4 - 8.5 67 3.1 - - - - - - - 0.0
21/10:30pm 14.8 - 8.5 66 3.3 - - - - - - - 0.0
21/10:20pm 15.2 - 8.5 64 3.5 - - - - - - - 0.0
21/10:10pm 15.7 - 8.6 62 3.7 - - - - - - - 0.0
21/10:00pm 16.1 - 8.6 61 3.9 - - - - - - - 0.0
21/09:50pm 16.3 - 8.6 60 4.0 - - - - - - - 0.0
21/09:40pm 16.6 - 8.9 60 4.1 - - - - - - - 0.0
21/09:30pm 16.9 - 9.0 59 4.2 - - - - - - - 0.0
21/09:20pm 17.2 - 9.0 58 4.4 - - - - - - - 0.0
21/09:10pm 17.5 - 8.7 56 4.7 - - - - - - - 0.0
21/09:00pm 17.9 - 8.7 55 4.9 - - - - - - - 0.0
21/08:50pm 18.2 - 9.0 55 4.9 - - - - - - - 0.0
21/08:40pm 18.6 - 8.7 52 5.3 - - - - - - - 0.0
21/08:30pm 19.0 - 8.7 51 5.5 - - - - - - - 0.0
21/08:20pm 19.4 - 8.7 50 5.7 - - - - - - - 0.0
21/08:10pm 19.9 - 8.3 47 6.2 - - - - - - - 0.0
21/08:00pm 20.3 - 8.8 47 6.2 - - - - - - - 0.0
21/07:50pm 20.8 - 8.1 44 6.8 - - - - - - - 0.0
21/07:40pm 21.5 - 7.5 40 7.4 - - - - - - - 0.0
21/07:30pm 22.0 - 6.3 36 8.2 - - - - - - - 0.0
21/07:20pm 22.4 - 5.9 34 8.6 - - - - - - - 0.0
21/07:10pm 23.0 - 6.3 34 8.8 - - - - - - - 0.0
21/07:00pm 23.4 - 6.2 33 9.0 - - - - - - - 0.0
21/06:50pm 23.9 - 6.2 32 9.3 - - - - - - - 0.0
21/06:40pm 24.2 - 5.3 29 9.8 - - - - - - - 0.0
21/06:30pm 24.6 - 5.3 28 10.0 - - - - - - - 0.0
21/06:20pm 25.0 - 4.7 27 10.5 - - - - - - - 0.0
21/06:10pm 25.2 - 5.0 27 10.5 - - - - - - - 0.0
21/06:00pm 25.5 - 4.4 25 10.9 - - - - - - - 0.0
21/05:50pm 25.8 - 2.9 22 11.5 - - - - - - - 0.0
21/05:40pm 26.0 - 3.9 24 11.3 - - - - - - - 0.0
21/05:30pm 26.2 - 2.8 22 11.7 - - - - - - - 0.0
21/05:20pm 26.3 - 3.7 23 11.5 - - - - - - - 0.0
21/05:00pm 26.7 - 2.8 21 12.0 - - - - - - - 0.0
21/04:50pm 26.7 - 2.9 21 12.0 - - - - - - - 0.0
21/04:40pm 26.7 - 4.2 23 11.6 - - - - - - - 0.0
21/04:30pm 26.8 - 2.8 21 12.1 - - - - - - - 0.0
21/04:20pm 26.7 - 2.4 20 12.2 - - - - - - - 0.0
21/04:10pm 26.6 - 3.1 22 11.9 - - - - - - - 0.0
21/04:00pm 26.6 - 2.2 20 12.2 - - - - - - - 0.0
21/03:50pm 26.8 - 3.4 22 11.9 - - - - - - - 0.0
21/03:40pm 26.8 - 4.6 24 11.5 - - - - - - - 0.0
21/03:30pm 26.9 - 4.1 23 11.8 - - - - - - - 0.0
21/03:20pm 26.8 - 4.5 24 11.6 - - - - - - - 0.0
21/03:10pm 27.0 - 2.7 21 12.2 - - - - - - - 0.0
21/03:00pm 26.6 - 3.5 22 11.8 - - - - - - - 0.0
21/02:50pm 26.2 - 3.7 23 11.5 - - - - - - - 0.0
21/02:40pm 26.1 - 5.5 26 10.8 - - - - - - - 0.0
21/02:30pm 25.9 - 4.1 24 11.2 - - - - - - - 0.0
21/02:20pm 25.9 - 4.2 24 11.1 - - - - - - - 0.0
21/02:10pm 25.6 - 4.5 25 10.9 - - - - - - - 0.0
21/02:00pm 25.3 - 3.6 24 11.0 - - - - - - - 0.0
21/01:50pm 25.1 - 5.1 27 10.4 - - - - - - - 0.0
21/01:40pm 24.7 - 4.0 26 10.5 - - - - - - - 0.0
21/01:30pm 24.8 - 4.1 26 10.5 - - - - - - - 0.0
21/01:20pm 24.8 - 4.6 27 10.4 - - - - - - - 0.0
21/01:10pm 24.2 - 5.3 29 9.8 - - - - - - - 0.0
21/01:00pm 24.0 - 4.6 28 9.9 - - - - - - - 0.0
21/12:50pm 24.2 - 5.0 29 9.9 - - - - - - - 0.0
21/12:40pm 24.2 - 4.1 27 10.2 - - - - - - - 0.0
21/12:30pm 23.9 - 4.8 29 9.8 - - - - - - - 0.0
21/12:20pm 23.2 - 3.6 28 9.8 - - - - - - - 0.0
21/12:10pm 23.1 - 4.3 29 9.5 - - - - - - - 0.0
21/12:00pm 23.2 - 1.9 24 10.3 - - - - - - - 0.0
21/11:50am 22.8 - 1.5 24 10.2 - - - - - - - 0.0
21/11:40am 22.2 - 2.6 27 9.5 - - - - - - - 0.0
21/11:30am 21.1 - 3.0 30 8.8 - - - - - - - 0.0
21/11:20am 20.8 - 3.7 32 8.4 - - - - - - - 0.0
21/11:10am 21.0 - 3.8 32 8.5 - - - - - - - 0.0
21/11:00am 20.8 - 4.1 33 8.3 - - - - - - - 0.0
21/10:50am 20.2 - 3.9 34 8.0 - - - - - - - 0.0
21/10:40am 20.1 - 4.7 36 7.7 - - - - - - - 0.0
21/10:30am 19.7 - 4.2 36 7.6 - - - - - - - 0.0
21/10:20am 19.3 - 4.5 37 7.3 - - - - - - - 0.0
21/10:10am 18.9 - 4.3 38 7.2 - - - - - - - 0.0
21/10:00am 18.5 - 5.1 41 6.7 - - - - - - - 0.0
21/09:50am 17.9 - 5.3 43 6.3 - - - - - - - 0.0
21/09:40am 17.0 - 4.8 44 6.0 - - - - - - - 0.0
21/09:30am 16.3 - 5.4 48 5.4 - - - - - - - 0.0
21/09:20am 15.7 - 5.3 50 5.1 - - - - - - - 0.0
21/09:10am 15.3 - 5.1 50 5.0 - - - - - - - 0.0
21/09:00am 14.7 - 4.6 50 4.8 - - - - - - - 0.0
21/08:50am 14.1 - 4.8 53 4.5 - - - - - - - 0.0
21/08:40am 13.4 - 4.5 55 4.2 - - - - - - - 0.0
21/08:30am 12.7 - 4.3 56 3.9 - - - - - - - 0.0
21/08:20am 12.1 - 4.7 60 3.5 - - - - - - - 0.0
21/08:10am 11.8 - 4.6 61 3.4 - - - - - - - 0.0
21/08:00am 11.4 - 4.7 63 3.1 - - - - - - - 0.0
21/07:50am 10.8 - 3.9 62 3.2 - - - - - - - 0.0
21/07:40am 10.2 - 4.2 66 2.8 - - - - - - - 0.0
21/07:30am 9.6 - 4.1 68 2.5 - - - - - - - 0.0
21/07:20am 8.9 - 4.0 71 2.2 - - - - - - - 0.0
21/07:10am 7.9 - 3.6 74 1.9 - - - - - - - 0.0
21/07:00am 6.6 - 3.4 80 1.4 - - - - - - - 0.0
21/06:50am 5.6 - 2.9 83 1.2 - - - - - - - 0.0
21/06:40am 5.0 - 2.7 85 1.0 - - - - - - - 0.0
21/06:30am 5.1 - 2.7 84 1.0 - - - - - - - 0.0
21/06:20am 5.3 - 3.2 86 0.9 - - - - - - - 0.0
21/06:10am 5.1 - 2.5 83 1.1 - - - - - - - 0.0
21/06:00am 4.9 - 2.6 85 1.0 - - - - - - - 0.0
21/05:50am 4.7 - 2.5 86 0.9 - - - - - - - 0.0
21/05:40am 4.9 - 2.6 85 1.0 - - - - - - - 0.0
21/05:30am 5.0 - 2.6 84 1.0 - - - - - - - 0.0
21/05:20am 4.9 - 2.6 85 1.0 - - - - - - - 0.0
21/05:10am 5.0 - 2.6 84 1.0 - - - - - - - 0.0
21/05:00am 5.1 - 2.6 84 1.1 - - - - - - - 0.0
21/04:50am 5.1 - 2.7 84 1.0 - - - - - - - 0.0
21/04:40am 5.2 - 2.7 84 1.1 - - - - - - - 0.0
21/04:30am 5.4 - 2.8 83 1.1 - - - - - - - 0.0
21/04:20am 5.8 - 2.9 82 1.2 - - - - - - - 0.0
21/04:10am 6.0 - 2.9 80 1.3 - - - - - - - 0.0
21/04:00am 5.9 - 2.9 81 1.3 - - - - - - - 0.0
21/03:50am 5.7 - 2.9 82 1.2 - - - - - - - 0.0
21/03:40am 5.9 - 2.9 81 1.3 - - - - - - - 0.0
21/03:30am 6.0 - 2.9 80 1.3 - - - - - - - 0.0
21/03:20am 6.0 - 2.9 80 1.3 - - - - - - - 0.0
21/03:10am 6.0 - 3.1 82 1.2 - - - - - - - 0.0
21/03:00am 6.3 - 3.1 80 1.4 - - - - - - - 0.0
21/02:50am 6.5 - 3.2 79 1.4 - - - - - - - 0.0
21/02:40am 6.8 - 3.2 78 1.6 - - - - - - - 0.0
21/02:30am 7.0 - 3.5 78 1.5 - - - - - - - 0.0
21/02:20am 7.0 - 3.1 76 1.7 - - - - - - - 0.0
21/02:10am 7.1 - 3.2 76 1.7 - - - - - - - 0.0
21/02:00am 7.3 - 3.2 75 1.8 - - - - - - - 0.0
21/01:50am 7.5 - 3.2 74 1.9 - - - - - - - 0.0
21/01:40am 7.5 - 3.3 75 1.8 - - - - - - - 0.0
21/01:30am 7.5 - 3.2 74 1.9 - - - - - - - 0.0
21/01:20am 7.8 - 3.3 73 2.0 - - - - - - - 0.0
21/01:10am 7.9 - 3.2 72 2.1 - - - - - - - 0.0
21/01:00am 8.2 - 3.6 73 2.0 - - - - - - - 0.0
21/12:50am 8.7 - 3.4 69 2.4 - - - - - - - 0.0
21/12:40am 8.7 - 3.4 69 2.4 - - - - - - - 0.0
21/12:30am 8.7 - 3.5 70 2.3 - - - - - - - 0.0
21/12:20am 9.1 - 3.4 67 2.5 - - - - - - - 0.0
21/12:10am 9.5 - 3.4 65 2.7 - - - - - - - 0.0
21/12:00am 10.0 - 3.6 64 2.9 - - - - - - - 0.0
 
Date/Time
EDT
Temp
°C
App
Temp
°C
Dew
Point
°C
Rel
Hum
%
Delta-T
°C
Wind Press
QNH
hPa
Press
MSL
hPa
Rain since
9am
mm
Dir  Spd
km/h
Gust
km/h
Spd
kts
Gust
kts
20/11:50pm 10.5 - 3.6 62 3.1 - - - - - - - 0.0
20/11:40pm 11.1 - 3.4 59 3.5 - - - - - - - 0.0
20/11:30pm 11.5 - 3.2 56 3.8 - - - - - - - 0.0
20/11:20pm 11.6 - 3.1 56 3.8 - - - - - - - 0.0
20/11:10pm 11.6 - 3.1 56 3.8 - - - - - - - 0.0
20/11:00pm 11.6 - 3.2 56 3.8 - - - - - - - 0.0
20/10:50pm 12.1 - 3.6 56 3.9 - - - - - - - 0.0
20/10:40pm 12.5 - 3.3 53 4.2 - - - - - - - 0.0
20/10:30pm 12.5 - 3.5 54 4.1 - - - - - - - 0.0
20/10:20pm 13.1 - 3.7 53 4.4 - - - - - - - 0.0
20/10:10pm 13.6 - 3.6 51 4.7 - - - - - - - 0.0
20/10:00pm 13.9 - 3.6 50 4.8 - - - - - - - 0.0
20/09:50pm 14.2 - 3.7 49 4.9 - - - - - - - 0.0
20/09:40pm 14.4 - 3.5 48 5.1 - - - - - - - 0.0
20/09:30pm 14.4 - 4.5 51 4.7 - - - - - - - 0.0
20/09:20pm 14.3 - 4.9 53 4.5 - - - - - - - 0.0
20/09:10pm 13.9 - 4.7 54 4.4 - - - - - - - 0.0
20/09:00pm 14.2 - 5.9 57 4.1 - - - - - - - 0.0
20/08:50pm 14.5 - 5.8 56 4.3 - - - - - - - 0.0
20/08:40pm 14.7 - 5.5 54 4.5 - - - - - - - 0.0
20/08:30pm 15.1 - 5.5 52 4.7 - - - - - - - 0.0
20/08:20pm 15.5 - 5.2 50 5.0 - - - - - - - 0.0
20/08:10pm 15.8 - 5.3 49 5.1 - - - - - - - 0.0
20/08:00pm 16.1 - 5.0 47 5.4 - - - - - - - 0.0
20/07:50pm 16.4 - 4.8 46 5.7 - - - - - - - 0.0
20/07:40pm 16.7 - 5.3 47 5.6 - - - - - - - 0.0
20/07:30pm 17.2 - 5.5 46 5.8 - - - - - - - 0.0
20/07:20pm 17.5 - 4.2 41 6.5 - - - - - - - 0.0
20/07:10pm 17.9 - 4.2 40 6.7 - - - - - - - 0.0
20/07:00pm 18.3 - 4.4 39 6.8 - - - - - - - 0.0
20/06:50pm 18.8 - 4.3 38 7.1 - - - - - - - 0.0
20/06:40pm 18.8 - 4.3 38 7.1 - - - - - - - 0.0
20/06:30pm 19.0 - 4.1 37 7.3 - - - - - - - 0.0
20/06:20pm 18.7 - 4.3 38 7.1 - - - - - - - 0.0
20/06:10pm 19.4 - 4.3 37 7.4 - - - - - - - 0.0
20/06:00pm 20.4 - 4.0 34 8.1 - - - - - - - 0.0
20/05:50pm 20.9 - 4.5 34 8.2 - - - - - - - 0.0
20/05:40pm 20.8 - 4.3 34 8.2 - - - - - - - 0.0
20/05:30pm 21.2 - 4.0 32 8.5 - - - - - - - 0.0
20/05:20pm 21.3 - 4.2 32 8.5 - - - - - - - 0.0
20/05:10pm 21.5 - 4.2 32 8.6 - - - - - - - 0.0
20/05:00pm 21.3 - 4.5 33 8.4 - - - - - - - 0.0
20/04:50pm 20.8 - 3.3 31 8.5 - - - - - - - 0.0
20/04:40pm 20.8 - 4.0 33 8.3 - - - - - - - 0.0
20/04:30pm 21.0 - 4.4 33 8.3 - - - - - - - 0.0
20/04:20pm 20.9 - 3.2 31 8.6 - - - - - - - 0.0
20/04:10pm 20.9 - 2.9 30 8.7 - - - - - - - 0.0
20/04:00pm 21.3 - 2.8 29 9.0 - - - - - - - 0.0
20/03:50pm 20.9 - 2.9 30 8.7 - - - - - - - 0.0
20/03:40pm 21.1 - 2.0 28 9.1 - - - - - - - 0.0
20/03:30pm 21.2 - 1.1 26 9.4 - - - - - - - 0.0
20/03:20pm 21.0 - 1.6 27 9.2 - - - - - - - 0.0
20/03:10pm 21.5 - 0.2 24 9.9 - - - - - - - 0.0
20/03:00pm 21.7 - 0.1 23 10.0 - - - - - - - 0.0
20/02:50pm 21.3 - 0.1 24 9.8 - - - - - - - 0.0
20/02:40pm 21.0 - -0.8 23 9.8 - - - - - - - 0.0
20/02:30pm 20.5 - -0.8 24 9.6 - - - - - - - 0.0
20/02:20pm 20.2 - -0.4 25 9.3 - - - - - - - 0.0
20/02:10pm 20.6 - -0.1 25 9.4 - - - - - - - 0.0
20/02:00pm 20.5 - -1.4 23 9.7 - - - - - - - 0.0
20/01:50pm 19.8 - -0.9 25 9.2 - - - - - - - 0.0
20/01:40pm 19.9 - -0.4 25 9.2 - - - - - - - 0.0
20/01:30pm 19.9 - -2.1 22 9.6 - - - - - - - 0.0
20/01:20pm 20.1 - -0.9 24 9.4 - - - - - - - 0.0
20/01:10pm 19.7 - -1.2 24 9.3 - - - - - - - 0.0
20/01:00pm 18.9 - -1.4 25 8.9 - - - - - - - 0.0
20/12:50pm 19.0 - -1.3 25 8.9 - - - - - - - 0.0
20/12:40pm 18.3 - -1.3 26 8.6 - - - - - - - 0.0
20/12:30pm 18.0 - -0.4 29 8.2 - - - - - - - 0.0
20/12:20pm 18.1 - -2.9 24 8.9 - - - - - - - 0.0
20/12:10pm 17.9 - -3.3 23 8.9 - - - - - - - 0.0
20/12:00pm 17.7 - -1.7 26 8.4 - - - - - - - 0.0
20/11:50am 17.3 - -3.3 24 8.6 - - - - - - - 0.0
20/11:40am 17.0 - -2.9 25 8.3 - - - - - - - 0.0
20/11:30am 16.6 - -2.0 28 7.9 - - - - - - - 0.0
20/11:20am 16.6 - -1.6 29 7.8 - - - - - - - 0.0
20/11:10am 16.5 - -3.1 26 8.1 - - - - - - - 0.0
20/11:00am 16.4 - -2.7 27 8.0 - - - - - - - 0.0
20/10:50am 16.1 - -1.1 31 7.4 - - - - - - - 0.0
20/10:40am 15.6 - -3.5 26 7.8 - - - - - - - 0.0
20/10:30am 15.4 - -3.5 27 7.7 - - - - - - - 0.0
20/10:20am 15.3 - -0.1 35 6.7 - - - - - - - 0.0
20/10:10am 15.1 - -1.8 31 7.1 - - - - - - - 0.0
20/10:00am 15.3 - -2.2 30 7.3 - - - - - - - 0.0
20/09:50am 15.2 - -1.5 31 7.1 - - - - - - - 0.0
20/09:40am 14.7 - -1.3 33 6.8 - - - - - - - 0.0
20/09:30am 14.0 - -1.8 33 6.6 - - - - - - - 0.0
20/09:20am 13.5 - -1.0 36 6.1 - - - - - - - 0.0
20/09:10am 13.3 - -0.7 38 5.9 - - - - - - - 0.0
20/09:00am 12.8 - -1.0 38 5.8 - - - - - - - 0.0
20/08:50am 12.5 - -0.1 42 5.4 - - - - - - - 0.0
20/08:40am 12.0 - 0.9 46 4.8 - - - - - - - 0.0
20/08:30am 11.4 - 0.8 48 4.6 - - - - - - - 0.0

Latest Capital City Observations: Canberra | Sydney | Melbourne | Brisbane | Adelaide | Perth | Hobart | Darwin

Other formats

Comma delimited format used in spreadsheet applications
http://www.bom.gov.au/fwo/IDN60903/IDN60903.99146.axf

JavaScript Object Notation format (JSON) in row-major order
http://www.bom.gov.au/fwo/IDN60903/IDN60903.99146.json

Data quality

Most of these data are generated automatically and are frequently updated. Quality checks on data are not normally performed. It is possible for incorrect values to appear. Refer to information at About Latest Weather Observations and please check the disclaimer before using these data.